ADDS METAR Data INFO
IDs: Format: Raw Decoded Include TAF

Data at: 1017 UTC 14 Dec 2017

K8A0 140955Z AUTO 22004KT 10SM CLR 02/00 A2985 RMK AO2
K8A0 140935Z AUTO 23005KT 10SM CLR 02/00 A2984 RMK AO2
K8A0 140915Z AUTO 22004KT 10SM CLR 02/00 A2985 RMK AO2
K8A0 140855Z AUTO 22005KT 10SM CLR 02/00 A2985 RMK AO2
K8A0 140835Z AUTO 23005KT 10SM CLR 03/00 A2985 RMK AO2
K8A0 140815Z AUTO 24006KT 10SM CLR 03/00 A2985 RMK AO2
K8A0 140755Z AUTO 24006KT 10SM CLR 03/00 A2985 RMK AO2
K8A0 140735Z AUTO 25007KT 10SM CLR 03/00 A2985 RMK AO2
K8A0 140715Z AUTO 24009KT 10SM CLR 04/00 A2985 RMK AO2
K8A0 140655Z AUTO 23008KT 10SM CLR 04/00 A2985 RMK AO2
K8A0 140635Z AUTO 23007KT 10SM CLR 05/00 A2985 RMK AO2
K8A0 140615Z AUTO 23006KT 10SM CLR 04/00 A2985 RMK AO2
K8A0 140555Z AUTO 23005KT 10SM CLR 04/00 A2984 RMK AO2
K8A0 140535Z AUTO 22006KT 10SM CLR 04/00 A2984 RMK AO2
K8A0 140515Z AUTO 22007KT 10SM CLR 05/00 A2985 RMK AO2
K8A0 140455Z AUTO 22007KT 10SM CLR 05/00 A2985 RMK AO2
K8A0 140435Z AUTO 22008KT 10SM CLR 05/00 A2985 RMK AO2
K8A0 140415Z AUTO 22009KT 10SM CLR 05/00 A2985 RMK AO2
K8A0 140355Z AUTO 22008KT 10SM CLR 06/M01 A2985 RMK AO2
K8A0 140335Z AUTO 23010G15KT 10SM CLR 06/M01 A2985 RMK AO2
K8A0 140315Z AUTO 23009KT 10SM CLR 06/M01 A2985 RMK AO2
K8A0 140255Z AUTO 23009KT 10SM CLR 05/M01 A2984 RMK AO2
K8A0 140235Z AUTO 22008KT 10SM CLR 05/M01 A2984 RMK AO2
K8A0 140215Z AUTO 24006KT 10SM CLR 06/M01 A2985 RMK AO2
K8A0 140155Z AUTO 22006KT 10SM CLR 05/M01 A2984 RMK AO2
K8A0 140135Z AUTO 21007KT 10SM CLR 05/M02 A2984 RMK AO2
K8A0 140115Z AUTO 24005KT 10SM CLR 05/M02 A2985 RMK AO2
K8A0 140055Z AUTO 21007KT 10SM CLR 05/M02 A2984 RMK AO2
K8A0 140035Z AUTO 20007KT 10SM CLR 05/M02 A2984 RMK AO2
K8A0 140015Z AUTO 20006KT 10SM CLR 06/M02 A2983 RMK AO2
K8A0 132355Z AUTO 21007KT 10SM CLR 06/M02 A2984 RMK AO2
K8A0 132335Z AUTO 20009KT 10SM CLR 07/M02 A2983 RMK AO2
K8A0 132315Z AUTO 20009KT 10SM CLR 07/M02 A2983 RMK AO2
K8A0 132255Z AUTO 20009G16KT 10SM CLR 07/M03 A2982 RMK AO2
K8A0 132235Z AUTO 20011G15KT 10SM CLR 08/M03 A2983 RMK AO2
K8A0 132215Z AUTO 21008G17KT 10SM CLR 08/M03 A2985 RMK AO2
K8A0 132155Z AUTO 20011G17KT 10SM CLR 08/M03 A2984 RMK AO2
K8A0 132135Z AUTO 22011G18KT 10SM CLR 09/M03 A2985 RMK AO2
K8A0 132115Z AUTO 23014G18KT 10SM CLR 10/M03 A2986 RMK AO2
K8A0 132055Z AUTO 21018G23KT 10SM CLR 10/M03 A2986 RMK AO2
K8A0 132035Z AUTO 22013G19KT 10SM CLR 10/M04 A2987 RMK AO2
K8A0 132015Z AUTO 23014G22KT 10SM CLR 09/M05 A2989 RMK AO2
K8A0 131955Z AUTO 23012G20KT 10SM CLR 09/M05 A2989 RMK AO2
K8A0 131935Z AUTO 23010KT 10SM CLR 09/M04 A2989 RMK AO2
K8A0 131915Z AUTO 22010G16KT 10SM CLR 08/M05 A2991 RMK AO2
K8A0 131855Z AUTO 21015G18KT 10SM CLR 08/M05 A2992 RMK AO2
K8A0 131835Z AUTO 22011G18KT 10SM CLR 08/M06 A2993 RMK AO2
K8A0 131815Z AUTO 20012G18KT 10SM CLR 07/M06 A2994 RMK AO2
K8A0 131755Z AUTO 20007G15KT 169V229 10SM CLR 07/M06 A2996 RMK AO2
K8A0 131735Z AUTO 22009KT 10SM CLR 06/M06 A2998 RMK AO2
K8A0 131715Z AUTO 20006G14KT 10SM CLR 06/M06 A3000 RMK AO2
K8A0 131655Z AUTO 22007KT 10SM CLR 05/M06 A3001 RMK AO2
K8A0 131635Z AUTO 21007KT 169V249 10SM CLR 04/M07 A3003 RMK AO2
K8A0 131615Z AUTO 21006KT 10SM CLR 03/M07 A3004 RMK AO2
K8A0 131555Z AUTO 19004KT 10SM CLR 03/M07 A3004 RMK AO2
K8A0 131535Z AUTO 19006KT 10SM CLR 02/M07 A3004 RMK AO2
K8A0 131515Z AUTO 16005KT 10SM CLR 01/M06 A3005 RMK AO2
K8A0 131455Z AUTO 21005KT 10SM CLR 00/M06 A3005 RMK AO2
K8A0 131435Z AUTO 20004KT 10SM CLR 00/M05 A3006 RMK AO2
K8A0 131415Z AUTO 20003KT 10SM CLR M01/M05 A3004 RMK AO2
K8A0 131355Z AUTO 19003KT 10SM CLR M01/M05 A3004 RMK AO2
K8A0 131335Z AUTO 00000KT 10SM CLR M02/M05 A3004 RMK AO2
K8A0 131315Z AUTO 21004KT 10SM CLR M03/M05 A3005 RMK AO2
K8A0 131255Z AUTO 22003KT 10SM CLR M03/M06 A3006 RMK AO2
K8A0 131235Z AUTO 21005KT 10SM CLR M03/M06 A3005 RMK AO2
K8A0 131215Z AUTO 20004KT 10SM CLR M05/M05 A3004 RMK AO2
K8A0 131155Z AUTO 00000KT 10SM CLR M03/M06 A3004 RMK AO2
K8A0 131135Z AUTO 00000KT 10SM CLR M03/M06 A3004 RMK AO2
K8A0 131115Z AUTO 00000KT 10SM CLR M03/M06 A3004 RMK AO2
K8A0 131055Z AUTO 00000KT 10SM CLR M03/M06 A3004 RMK AO2
K8A0 131035Z AUTO 00000KT 10SM CLR M02/M07 A3004 RMK AO2
K8A0 131015Z AUTO 00000KT 10SM CLR M02/M07 A3004 RMK AO2
K8A0 130955Z AUTO 00000KT 10SM CLR M02/M07 A3005 RMK AO2
K8A0 130935Z AUTO 00000KT 10SM CLR M02/M07 A3006 RMK AO2
K8A0 130915Z AUTO 28003KT 10SM CLR M02/M07 A3006 RMK AO2
K8A0 130855Z AUTO 00000KT 10SM CLR M02/M07 A3007 RMK AO2
K8A0 130835Z AUTO 26003KT 10SM CLR M01/M07 A3007 RMK AO2
K8A0 130815Z AUTO 34004KT 10SM CLR 00/M08 A3007 RMK AO2
K8A0 130755Z AUTO 34004KT 10SM CLR 00/M07 A3007 RMK AO2
K8A0 130735Z AUTO 32003KT 10SM CLR M01/M07 A3007 RMK AO2
K8A0 130715Z AUTO 32004KT 10SM CLR 00/M07 A3007 RMK AO2
K8A0 130655Z AUTO 33006KT 10SM CLR 00/M07 A3006 RMK AO2
K8A0 130635Z AUTO 33006KT 10SM CLR 00/M07 A3006 RMK AO2
K8A0 130615Z AUTO 32006KT 10SM CLR 00/M07 A3007 RMK AO2
K8A0 130555Z AUTO 34006KT 10SM CLR 00/M07 A3007 RMK AO2
K8A0 130535Z AUTO 34008KT 10SM CLR 00/M07 A3008 RMK AO2
K8A0 130515Z AUTO 33008KT 10SM CLR 00/M07 A3008 RMK AO2
K8A0 130455Z AUTO 34009KT 10SM CLR 00/M07 A3008 RMK AO2
K8A0 130435Z AUTO 34008KT 10SM CLR 00/M07 A3008 RMK AO2
K8A0 130415Z AUTO 34009KT 10SM CLR 01/M06 A3008 RMK AO2
K8A0 130355Z AUTO 33011G16KT 10SM CLR 01/M06 A3007 RMK AO2
K8A0 130335Z AUTO 33008KT 10SM CLR 01/M06 A3007 RMK AO2
K8A0 130315Z AUTO 34010G14KT 10SM CLR 01/M07 A3007 RMK AO2
K8A0 130255Z AUTO 34008KT 10SM CLR 02/M06 A3006 RMK AO2
K8A0 130235Z AUTO 34014G19KT 10SM CLR 02/M06 A3006 RMK AO2
K8A0 130215Z AUTO 34009G16KT 10SM CLR 02/M03 A3006 RMK AO2
K8A0 130155Z AUTO 34009KT 10SM CLR 03/M02 A3005 RMK AO2
K8A0 130135Z AUTO 33006KT 10SM CLR 03/M02 A3004 RMK AO2
K8A0 130115Z AUTO 32009KT 10SM CLR 03/M02 A3003 RMK AO2
K8A0 130055Z AUTO 34006KT 10SM CLR 03/M01 A3003 RMK AO2
K8A0 130035Z AUTO 32007KT 10SM CLR 04/M01 A3003 RMK AO2
K8A0 130015Z AUTO 30008KT 10SM CLR 05/M01 A3002 RMK AO2
K8A0 122355Z AUTO 31008KT 10SM CLR 05/M01 A3002 RMK AO2
K8A0 122335Z AUTO 31010G15KT 10SM CLR 05/M01 A3001 RMK AO2
K8A0 122315Z AUTO 31007G15KT 10SM CLR 06/M01 A3000 RMK AO2
K8A0 122255Z AUTO 31009G17KT 10SM CLR 06/M01 A3000 RMK AO2
K8A0 122235Z AUTO 30012G16KT 10SM CLR 06/00 A3000 RMK AO2